Kine — C6WT4 — position and weather

sailwx.info

Track history (hours):
 
Tides and Currents Weather Stations Pressure Air Temp Water Temp Dewpoint Dewpoint Depression Visibility Wind Speed Wind Dir Waves Ship Positions

Kine

Last reported at 2017-Feb-24 19:33 UTC. Time now 2017-Feb-24 19:34 UTC.
Position N 53°32' E 010°00'.

Length 89 m; draft 3.5 m.

Type: Cargo ship. MMSI: 311117000.

Date/timePositionNaut miles runAvg speedWind from/ knotsBaromVisibWave heightAir tempDewpointWater temp
2017-Feb-24 19:33N 53°32' E 010°00'0 0.0
2017-Feb-24 18:33N 53°32' E 010°00'0 0.5
2017-Feb-24 17:34N 53°32' E 009°60'4 3.9
2017-Feb-24 16:33N 53°28' E 009°59'0 0.0
2017-Feb-24 15:32N 53°28' E 009°58'0 0.0
2017-Feb-24 14:32N 53°28' E 009°58'0 0.0
2017-Feb-24 13:32N 53°28' E 009°58'0 0.0
2017-Feb-24 12:32N 53°28' E 009°58'0 0.0
2017-Feb-24 11:32N 53°28' E 009°58'0 0.0
2017-Feb-24 10:32N 53°28' E 009°58'0 0.0
2017-Feb-24 09:29N 53°28' E 009°58'0 0.0
2017-Feb-24 08:32N 53°28' E 009°58'0 0.0
2017-Feb-24 07:26N 53°28' E 009°58'0 0.0
2017-Feb-24 06:32N 53°28' E 009°58'0 0.0
2017-Feb-24 05:32N 53°28' E 009°58'0 0.0
2017-Feb-24 04:32N 53°28' E 009°58'0 0.0
2017-Feb-24 03:32N 53°28' E 009°58'0 0.0
2017-Feb-24 02:32N 53°28' E 009°58'0 0.0
2017-Feb-24 01:32N 53°28' E 009°58'0 0.0
2017-Feb-24 00:32N 53°28' E 009°58'0 0.0
2017-Feb-23 23:32N 53°28' E 009°58'0 0.0
2017-Feb-23 22:32N 53°28' E 009°58'0 0.0
2017-Feb-23 21:34N 53°28' E 009°58'7 6.7
2017-Feb-23 20:34N 53°33' E 009°50'1110.9
2017-Feb-23 19:34N 53°37' E 009°33'10 9.7
2017-Feb-23 18:34N 53°45' E 009°24'9 8.6
2017-Feb-23 17:34N 53°52' E 009°16'8 7.9
2017-Feb-23 16:33N 53°52' E 009°02'7 6.9
2017-Feb-23 15:34N 53°50' E 008°51'6 5.9
2017-Feb-23 14:32N 53°53' E 008°42'5 5.4
2017-Feb-23 13:33N 53°57' E 008°36'8 8.0
2017-Feb-23 12:33N 53°59' E 008°23'9 8.9
2017-Feb-23 11:33N 53°59' E 008°08'10 9.5
2017-Feb-23 10:33N 53°57' E 007°52'135 9.6
2017-Feb-22 20:31N 53°04' E 004°24'9 8.9
2017-Feb-22 19:33N 52°56' E 004°17'20 9.1
2017-Feb-22 17:23N 52°41' E 003°57'8310.5
2017-Feb-22 09:28N 51°53' E 002°06'910.5
2017-Feb-22 08:34N 51°49' E 001°52'10 9.8
2017-Feb-22 07:33N 51°48' E 001°37'9 8.9
2017-Feb-22 06:34N 51°44' E 001°24'9 8.8
2017-Feb-22 05:34N 51°37' E 001°14'9 9.1
2017-Feb-22 04:32N 51°32' E 001°02'12 9.2
2017-Feb-22 03:13N 51°30' E 000°43'711.2
2017-Feb-22 02:34N 51°30' E 000°31'9 8.7
2017-Feb-22 01:34N 51°28' E 000°17'5 4.6
2017-Feb-22 00:31N 51°30' E 000°10'0 0.0
2017-Feb-21 23:31N 51°30' E 000°10'0 0.0
2017-Feb-21 22:31N 51°30' E 000°10'0 0.0
2017-Feb-21 21:28N 51°30' E 000°10'0 0.0
2017-Feb-21 20:31N 51°30' E 000°10'0 0.0
2017-Feb-21 19:31N 51°30' E 000°10'0 0.0
2017-Feb-21 18:28N 51°30' E 000°10'0 0.0
2017-Feb-21 17:28N 51°30' E 000°10'0 0.0
2017-Feb-21 16:31N 51°30' E 000°10'0 0.0
2017-Feb-21 15:31N 51°30' E 000°10'0 0.0
2017-Feb-21 14:31N 51°30' E 000°10'0 0.0
2017-Feb-21 13:28N 51°30' E 000°10'0 0.0
2017-Feb-21 12:31N 51°30' E 000°10'0 0.0
2017-Feb-21 11:31N 51°30' E 000°10'0 0.0
2017-Feb-21 10:31N 51°30' E 000°10'0 0.0
2017-Feb-21 09:31N 51°30' E 000°10'0 0.0
2017-Feb-21 08:31N 51°30' E 000°10'0 0.0
2017-Feb-21 07:31N 51°30' E 000°10'0 0.0
2017-Feb-21 06:31N 51°30' E 000°10'0 0.0
2017-Feb-21 05:31N 51°30' E 000°10'0 0.0
2017-Feb-21 04:31N 51°30' E 000°10'0 0.0
2017-Feb-21 03:31N 51°30' E 000°10'0 0.0
2017-Feb-21 02:31N 51°30' E 000°10'0 0.0
2017-Feb-21 01:31N 51°30' E 000°10'0 0.0
2017-Feb-21 00:31N 51°30' E 000°10'0 0.0
2017-Feb-20 23:31N 51°30' E 000°10'0 0.0
2017-Feb-20 22:31N 51°30' E 000°10'0 0.0
2017-Feb-20 21:31N 51°30' E 000°10'0 0.0
2017-Feb-20 20:31N 51°30' E 000°10'0 0.0
2017-Feb-20 19:31N 51°30' E 000°10'0 0.0
2017-Feb-20 18:31N 51°30' E 000°10'0 0.0
2017-Feb-20 17:31N 51°30' E 000°10'0 0.0
2017-Feb-20 16:31N 51°30' E 000°10'0 0.0
2017-Feb-20 15:31N 51°30' E 000°10'0 0.0
2017-Feb-20 14:31N 51°30' E 000°10'0 0.0
2017-Feb-20 13:31N 51°30' E 000°10'0 0.0
2017-Feb-20 12:31N 51°30' E 000°10'0 0.0
2017-Feb-20 11:31N 51°30' E 000°10'0 0.0
2017-Feb-20 10:28N 51°30' E 000°10'0 0.0
2017-Feb-20 09:28N 51°30' E 000°10'0 0.0
2017-Feb-20 08:28N 51°30' E 000°10'0 0.0
2017-Feb-20 07:31N 51°30' E 000°10'0 0.0
2017-Feb-20 06:31N 51°30' E 000°10'0 0.0
2017-Feb-20 05:31N 51°30' E 000°10'0 0.0
2017-Feb-20 04:31N 51°30' E 000°10'0 0.0
2017-Feb-20 03:31N 51°30' E 000°10'0 0.0
2017-Feb-20 02:31N 51°30' E 000°10'0 0.0
2017-Feb-20 01:28N 51°30' E 000°10'0 0.0
2017-Feb-20 00:31N 51°30' E 000°10'0 0.0
2017-Feb-19 23:31N 51°30' E 000°10'0 0.0
2017-Feb-19 22:28N 51°30' E 000°10'0 0.0
2017-Feb-19 21:31N 51°30' E 000°10'0 0.0
2017-Feb-19 20:31N 51°30' E 000°10'1 0.6
2017-Feb-19 19:33N 51°29' E 000°11'8 7.6
2017-Feb-19 18:34N 51°27' E 000°23'8 7.7
2017-Feb-19 17:33N 51°30' E 000°34'10 8.7
2017-Feb-19 16:25N 51°30' E 000°50'5 1.7
2017-Feb-19 13:06N 51°31' E 000°58'0 0.0
2017-Feb-19 10:27N 51°31' E 000°59'0 0.0
2017-Feb-19 06:18N 51°31' E 000°58'0 0.0
2017-Feb-19 02:33N 51°30' E 000°58'0 0.0
2017-Feb-19 01:33N 51°30' E 000°58'0 0.1
2017-Feb-19 00:12N 51°31' E 000°58'0 0.1
2017-Feb-18 23:33N 51°31' E 000°59'0 0.0
2017-Feb-18 22:33N 51°31' E 000°59'0 0.0
2017-Feb-18 21:24N 51°31' E 000°59'0 0.0
2017-Feb-18 13:33N 51°30' E 000°58'3 1.2
2017-Feb-18 11:22N 51°32' E 001°02'8 9.3
2017-Feb-18 10:33N 51°36' E 001°12'9 8.8
2017-Feb-18 09:33N 51°42' E 001°22'8 8.4
2017-Feb-18 08:34N 51°48' E 001°32'8 7.9
2017-Feb-18 07:34N 51°52' E 001°43'8 7.5
2017-Feb-18 06:34N 51°60' E 001°45'8 7.6
2017-Feb-18 05:33N 52°07' E 001°47'8 8.3
2017-Feb-18 04:33N 52°16' E 001°48'31 9.9
2017-Feb-18 01:28N 52°46' E 001°52'1010.6
2017-Feb-18 00:33N 52°56' E 001°50'1111.1
2017-Feb-17 23:33N 53°05' E 001°41'1110.8
2017-Feb-17 22:33N 53°15' E 001°31'97 9.4
2017-Feb-17 12:15N 54°43' E 000°24'176 9.4
2017-Feb-16 17:33N 57°25' W 001°41'6 5.7
2017-Feb-16 16:32N 57°30' W 001°47'0 0.0
2017-Feb-16 15:32N 57°30' W 001°47'0 0.0
2017-Feb-16 14:32N 57°30' W 001°47'0 0.0
2017-Feb-16 13:32N 57°30' W 001°47'0 0.0
2017-Feb-16 12:32N 57°30' W 001°47'0 0.0
2017-Feb-16 11:32N 57°30' W 001°47'0 0.0
2017-Feb-16 10:32N 57°30' W 001°47'0 0.0
2017-Feb-16 09:32N 57°30' W 001°47'0 0.0
2017-Feb-16 08:32N 57°30' W 001°47'0 0.0
2017-Feb-16 07:32N 57°30' W 001°47'0 0.0
2017-Feb-16 06:32N 57°30' W 001°47'0 0.0
2017-Feb-16 05:32N 57°30' W 001°47'0 0.0
2017-Feb-16 04:32N 57°30' W 001°47'0 0.0
2017-Feb-16 03:32N 57°30' W 001°47'0 0.0
2017-Feb-16 02:32N 57°30' W 001°47'0 0.0
2017-Feb-16 01:29N 57°30' W 001°47'0 0.0
2017-Feb-16 00:32N 57°30' W 001°47'0 0.0
2017-Feb-15 23:32N 57°30' W 001°47'0 0.0
2017-Feb-15 22:32N 57°30' W 001°47'0 0.0
2017-Feb-15 21:32N 57°30' W 001°47'0 0.0
2017-Feb-15 20:32N 57°30' W 001°47'0 0.0
2017-Feb-15 19:32N 57°30' W 001°47'0 0.0
2017-Feb-15 18:29N 57°30' W 001°47'0 0.0
2017-Feb-15 17:32N 57°30' W 001°47'0 0.0
2017-Feb-15 16:32N 57°30' W 001°47'0 0.0
2017-Feb-15 15:32N 57°30' W 001°47'0 0.0
2017-Feb-15 14:32N 57°30' W 001°47'0 0.0
2017-Feb-15 13:32N 57°30' W 001°47'0 0.0
2017-Feb-15 12:32N 57°30' W 001°47'0 0.0
2017-Feb-15 11:32N 57°30' W 001°47'0 0.0
2017-Feb-15 10:32N 57°30' W 001°47'0 0.3
2017-Feb-15 09:33N 57°30' W 001°47'10 9.2
2017-Feb-15 08:29N 57°20' W 001°49'1111.3
2017-Feb-15 07:33N 57°10' W 001°54'1110.4
2017-Feb-15 06:32N 57°00' W 002°02'  
Track history (hours):
 
Tides and Currents Weather Stations Pressure Air Temp Water Temp Dewpoint Dewpoint Depression Visibility Wind Speed Wind Dir Waves Ship Positions

Kine

Last reported at 2017-Feb-24 19:33 UTC. Time now 2017-Feb-24 19:34 UTC.
Position N 53°32' E 010°00'.

Length 89 m; draft 3.5 m.

Type: Cargo ship. MMSI: 311117000.

Date/timePositionNaut miles runAvg speedWind from/ knotsBaromVisibWave heightAir tempDewpointWater temp
2017-Feb-24 19:33N 53°32' E 010°00'0 0.0
2017-Feb-24 18:33N 53°32' E 010°00'0 0.5
2017-Feb-24 17:34N 53°32' E 009°60'4 3.9
2017-Feb-24 16:33N 53°28' E 009°59'0 0.0
2017-Feb-24 15:32N 53°28' E 009°58'0 0.0
2017-Feb-24 14:32N 53°28' E 009°58'0 0.0
2017-Feb-24 13:32N 53°28' E 009°58'0 0.0
2017-Feb-24 12:32N 53°28' E 009°58'0 0.0
2017-Feb-24 11:32N 53°28' E 009°58'0 0.0
2017-Feb-24 10:32N 53°28' E 009°58'0 0.0
2017-Feb-24 09:29N 53°28' E 009°58'0 0.0
2017-Feb-24 08:32N 53°28' E 009°58'0 0.0
2017-Feb-24 07:26N 53°28' E 009°58'0 0.0
2017-Feb-24 06:32N 53°28' E 009°58'0 0.0
2017-Feb-24 05:32N 53°28' E 009°58'0 0.0
2017-Feb-24 04:32N 53°28' E 009°58'0 0.0
2017-Feb-24 03:32N 53°28' E 009°58'0 0.0
2017-Feb-24 02:32N 53°28' E 009°58'0 0.0
2017-Feb-24 01:32N 53°28' E 009°58'0 0.0
2017-Feb-24 00:32N 53°28' E 009°58'0 0.0
2017-Feb-23 23:32N 53°28' E 009°58'0 0.0
2017-Feb-23 22:32N 53°28' E 009°58'0 0.0
2017-Feb-23 21:34N 53°28' E 009°58'7 6.7
2017-Feb-23 20:34N 53°33' E 009°50'1110.9
2017-Feb-23 19:34N 53°37' E 009°33'10 9.7
2017-Feb-23 18:34N 53°45' E 009°24'9 8.6
2017-Feb-23 17:34N 53°52' E 009°16'8 7.9
2017-Feb-23 16:33N 53°52' E 009°02'7 6.9
2017-Feb-23 15:34N 53°50' E 008°51'6 5.9
2017-Feb-23 14:32N 53°53' E 008°42'5 5.4
2017-Feb-23 13:33N 53°57' E 008°36'8 8.0
2017-Feb-23 12:33N 53°59' E 008°23'9 8.9
2017-Feb-23 11:33N 53°59' E 008°08'10 9.5
2017-Feb-23 10:33N 53°57' E 007°52'135 9.6
2017-Feb-22 20:31N 53°04' E 004°24'9 8.9
2017-Feb-22 19:33N 52°56' E 004°17'20 9.1
2017-Feb-22 17:23N 52°41' E 003°57'8310.5
2017-Feb-22 09:28N 51°53' E 002°06'910.5
2017-Feb-22 08:34N 51°49' E 001°52'10 9.8
2017-Feb-22 07:33N 51°48' E 001°37'9 8.9
2017-Feb-22 06:34N 51°44' E 001°24'9 8.8
2017-Feb-22 05:34N 51°37' E 001°14'9 9.1
2017-Feb-22 04:32N 51°32' E 001°02'12 9.2
2017-Feb-22 03:13N 51°30' E 000°43'711.2
2017-Feb-22 02:34N 51°30' E 000°31'9 8.7
2017-Feb-22 01:34N 51°28' E 000°17'5 4.6
2017-Feb-22 00:31N 51°30' E 000°10'0 0.0
2017-Feb-21 23:31N 51°30' E 000°10'0 0.0
2017-Feb-21 22:31N 51°30' E 000°10'0 0.0
2017-Feb-21 21:28N 51°30' E 000°10'0 0.0
2017-Feb-21 20:31N 51°30' E 000°10'0 0.0
2017-Feb-21 19:31N 51°30' E 000°10'0 0.0
2017-Feb-21 18:28N 51°30' E 000°10'0 0.0
2017-Feb-21 17:28N 51°30' E 000°10'0 0.0
2017-Feb-21 16:31N 51°30' E 000°10'0 0.0
2017-Feb-21 15:31N 51°30' E 000°10'0 0.0
2017-Feb-21 14:31N 51°30' E 000°10'0 0.0
2017-Feb-21 13:28N 51°30' E 000°10'0 0.0
2017-Feb-21 12:31N 51°30' E 000°10'0 0.0
2017-Feb-21 11:31N 51°30' E 000°10'0 0.0
2017-Feb-21 10:31N 51°30' E 000°10'0 0.0
2017-Feb-21 09:31N 51°30' E 000°10'0 0.0
2017-Feb-21 08:31N 51°30' E 000°10'0 0.0
2017-Feb-21 07:31N 51°30' E 000°10'0 0.0
2017-Feb-21 06:31N 51°30' E 000°10'0 0.0
2017-Feb-21 05:31N 51°30' E 000°10'0 0.0
2017-Feb-21 04:31N 51°30' E 000°10'0 0.0
2017-Feb-21 03:31N 51°30' E 000°10'0 0.0
2017-Feb-21 02:31N 51°30' E 000°10'0 0.0
2017-Feb-21 01:31N 51°30' E 000°10'0 0.0
2017-Feb-21 00:31N 51°30' E 000°10'0 0.0
2017-Feb-20 23:31N 51°30' E 000°10'0 0.0
2017-Feb-20 22:31N 51°30' E 000°10'0 0.0
2017-Feb-20 21:31N 51°30' E 000°10'0 0.0
2017-Feb-20 20:31N 51°30' E 000°10'0 0.0
2017-Feb-20 19:31N 51°30' E 000°10'0 0.0
2017-Feb-20 18:31N 51°30' E 000°10'0 0.0
2017-Feb-20 17:31N 51°30' E 000°10'0 0.0
2017-Feb-20 16:31N 51°30' E 000°10'0 0.0
2017-Feb-20 15:31N 51°30' E 000°10'0 0.0
2017-Feb-20 14:31N 51°30' E 000°10'0 0.0
2017-Feb-20 13:31N 51°30' E 000°10'0 0.0
2017-Feb-20 12:31N 51°30' E 000°10'0 0.0
2017-Feb-20 11:31N 51°30' E 000°10'0 0.0
2017-Feb-20 10:28N 51°30' E 000°10'0 0.0
2017-Feb-20 09:28N 51°30' E 000°10'0 0.0
2017-Feb-20 08:28N 51°30' E 000°10'0 0.0
2017-Feb-20 07:31N 51°30' E 000°10'0 0.0
2017-Feb-20 06:31N 51°30' E 000°10'0 0.0
2017-Feb-20 05:31N 51°30' E 000°10'0 0.0
2017-Feb-20 04:31N 51°30' E 000°10'0 0.0
2017-Feb-20 03:31N 51°30' E 000°10'0 0.0
2017-Feb-20 02:31N 51°30' E 000°10'0 0.0
2017-Feb-20 01:28N 51°30' E 000°10'0 0.0
2017-Feb-20 00:31N 51°30' E 000°10'0 0.0
2017-Feb-19 23:31N 51°30' E 000°10'0 0.0
2017-Feb-19 22:28N 51°30' E 000°10'0 0.0
2017-Feb-19 21:31N 51°30' E 000°10'0 0.0
2017-Feb-19 20:31N 51°30' E 000°10'1 0.6
2017-Feb-19 19:33N 51°29' E 000°11'8 7.6
2017-Feb-19 18:34N 51°27' E 000°23'8 7.7
2017-Feb-19 17:33N 51°30' E 000°34'10 8.7
2017-Feb-19 16:25N 51°30' E 000°50'5 1.7
2017-Feb-19 13:06N 51°31' E 000°58'0 0.0
2017-Feb-19 10:27N 51°31' E 000°59'0 0.0
2017-Feb-19 06:18N 51°31' E 000°58'0 0.0
2017-Feb-19 02:33N 51°30' E 000°58'0 0.0
2017-Feb-19 01:33N 51°30' E 000°58'0 0.1
2017-Feb-19 00:12N 51°31' E 000°58'0 0.1
2017-Feb-18 23:33N 51°31' E 000°59'0 0.0
2017-Feb-18 22:33N 51°31' E 000°59'0 0.0
2017-Feb-18 21:24N 51°31' E 000°59'0 0.0
2017-Feb-18 13:33N 51°30' E 000°58'3 1.2
2017-Feb-18 11:22N 51°32' E 001°02'8 9.3
2017-Feb-18 10:33N 51°36' E 001°12'9 8.8
2017-Feb-18 09:33N 51°42' E 001°22'8 8.4
2017-Feb-18 08:34N 51°48' E 001°32'8 7.9
2017-Feb-18 07:34N 51°52' E 001°43'8 7.5
2017-Feb-18 06:34N 51°60' E 001°45'8 7.6
2017-Feb-18 05:33N 52°07' E 001°47'8 8.3
2017-Feb-18 04:33N 52°16' E 001°48'31 9.9
2017-Feb-18 01:28N 52°46' E 001°52'1010.6
2017-Feb-18 00:33N 52°56' E 001°50'1111.1
2017-Feb-17 23:33N 53°05' E 001°41'1110.8
2017-Feb-17 22:33N 53°15' E 001°31'97 9.4
2017-Feb-17 12:15N 54°43' E 000°24'176 9.4
2017-Feb-16 17:33N 57°25' W 001°41'6 5.7
2017-Feb-16 16:32N 57°30' W 001°47'0 0.0
2017-Feb-16 15:32N 57°30' W 001°47'0 0.0
2017-Feb-16 14:32N 57°30' W 001°47'0 0.0
2017-Feb-16 13:32N 57°30' W 001°47'0 0.0
2017-Feb-16 12:32N 57°30' W 001°47'0 0.0
2017-Feb-16 11:32N 57°30' W 001°47'0 0.0
2017-Feb-16 10:32N 57°30' W 001°47'0 0.0
2017-Feb-16 09:32N 57°30' W 001°47'0 0.0
2017-Feb-16 08:32N 57°30' W 001°47'0 0.0
2017-Feb-16 07:32N 57°30' W 001°47'0 0.0
2017-Feb-16 06:32N 57°30' W 001°47'0 0.0
2017-Feb-16 05:32N 57°30' W 001°47'0 0.0
2017-Feb-16 04:32N 57°30' W 001°47'0 0.0
2017-Feb-16 03:32N 57°30' W 001°47'0 0.0
2017-Feb-16 02:32N 57°30' W 001°47'0 0.0
2017-Feb-16 01:29N 57°30' W 001°47'0 0.0
2017-Feb-16 00:32N 57°30' W 001°47'0 0.0
2017-Feb-15 23:32N 57°30' W 001°47'0 0.0
2017-Feb-15 22:32N 57°30' W 001°47'0 0.0
2017-Feb-15 21:32N 57°30' W 001°47'0 0.0
2017-Feb-15 20:32N 57°30' W 001°47'0 0.0
2017-Feb-15 19:32N 57°30' W 001°47'0 0.0
2017-Feb-15 18:29N 57°30' W 001°47'0 0.0
2017-Feb-15 17:32N 57°30' W 001°47'0 0.0
2017-Feb-15 16:32N 57°30' W 001°47'0 0.0
2017-Feb-15 15:32N 57°30' W 001°47'0 0.0
2017-Feb-15 14:32N 57°30' W 001°47'0 0.0
2017-Feb-15 13:32N 57°30' W 001°47'0 0.0
2017-Feb-15 12:32N 57°30' W 001°47'0 0.0
2017-Feb-15 11:32N 57°30' W 001°47'0 0.0
2017-Feb-15 10:32N 57°30' W 001°47'0 0.3
2017-Feb-15 09:33N 57°30' W 001°47'10 9.2
2017-Feb-15 08:29N 57°20' W 001°49'1111.3
2017-Feb-15 07:33N 57°10' W 001°54'1110.4
2017-Feb-15 06:32N 57°00' W 002°02'  

Dump ship's entire track history